createdAt,value
2023-05-19T00:01:38.899Z,12.67
2023-05-19T00:04:08.727Z,12.67
2023-05-19T00:06:38.504Z,12.59
2023-05-19T00:09:12.077Z,12.54
2023-05-19T00:11:41.872Z,12.51
2023-05-19T00:14:11.793Z,12.32
2023-05-19T00:16:42.445Z,12.29
2023-05-19T00:19:12.269Z,12.21
2023-05-19T00:21:41.120Z,12.25
2023-05-19T00:24:11.370Z,12.31
2023-05-19T00:26:40.299Z,12.16
2023-05-19T00:29:09.132Z,12.04
2023-05-19T00:31:37.884Z,11.95
2023-05-19T00:34:06.772Z,11.78
2023-05-19T00:36:35.605Z,11.82
2023-05-19T00:39:05.766Z,11.67
2023-05-19T00:41:36.195Z,11.53
2023-05-19T00:44:05.146Z,11.50
2023-05-19T00:46:34.137Z,11.39
2023-05-19T00:49:02.976Z,11.41
2023-05-19T00:51:32.734Z,11.36
2023-05-19T00:54:01.750Z,11.40
2023-05-19T00:56:30.995Z,11.45
2023-05-19T00:59:04.417Z,11.48
2023-05-19T01:01:33.606Z,11.38
2023-05-19T01:04:04.138Z,11.36
2023-05-19T01:06:33.300Z,11.30
2023-05-19T01:09:02.078Z,11.11
2023-05-19T01:11:31.929Z,10.99
2023-05-19T01:14:02.300Z,11.06
2023-05-19T01:16:38.251Z,11.04
2023-05-19T01:19:22.907Z,11.26
2023-05-19T01:22:25.707Z,11.31
2023-05-19T01:25:44.789Z,11.02
2023-05-19T01:28:49.025Z,10.97
2023-05-19T01:31:23.937Z,11.17
2023-05-19T01:33:55.753Z,11.17
2023-05-19T01:36:27.938Z,11.17
2023-05-19T01:39:00.000Z,10.98
2023-05-19T01:41:30.833Z,10.96
2023-05-19T01:44:00.552Z,11.01
2023-05-19T01:46:31.058Z,11.02
2023-05-19T01:49:00.918Z,10.82
2023-05-19T01:51:30.049Z,10.80
2023-05-19T01:53:59.052Z,10.86
2023-05-19T01:56:42.567Z,10.81
2023-05-19T01:59:30.984Z,10.65
2023-05-19T02:02:08.738Z,10.56
2023-05-19T02:04:49.495Z,10.39
2023-05-19T02:07:32.462Z,10.46
2023-05-19T02:10:12.199Z,10.60
2023-05-19T02:12:42.685Z,10.60
2023-05-19T02:15:17.599Z,10.50
2023-05-19T02:17:54.475Z,10.46
2023-05-19T02:20:23.563Z,10.40
2023-05-19T02:22:52.513Z,10.43
2023-05-19T02:25:21.696Z,10.31
2023-05-19T02:27:50.537Z,10.22
2023-05-19T02:30:19.478Z,10.30
2023-05-19T02:32:49.811Z,10.23
2023-05-19T02:35:19.074Z,10.24
2023-05-19T02:37:48.009Z,10.31
2023-05-19T02:40:16.776Z,10.40
2023-05-19T02:42:46.113Z,10.46
2023-05-19T02:45:15.497Z,10.50
2023-05-19T02:47:44.349Z,10.52
2023-05-19T02:50:14.804Z,10.39
2023-05-19T02:52:43.599Z,10.17
2023-05-19T02:55:17.102Z,10.09
2023-05-19T02:57:46.305Z,10.09
2023-05-19T03:00:16.618Z,10.20
2023-05-19T03:02:46.579Z,10.18
2023-05-19T03:05:17.092Z,10.21
2023-05-19T03:07:45.892Z,10.13
2023-05-19T03:10:14.820Z,10.14
2023-05-19T03:12:43.690Z,10.07
2023-05-19T03:15:15.161Z,10.14
2023-05-19T03:17:44.158Z,10.20
2023-05-19T03:20:16.166Z,10.26
2023-05-19T03:22:46.449Z,10.30
2023-05-19T03:25:15.525Z,10.30
2023-05-19T03:27:44.532Z,10.30
2023-05-19T03:30:15.388Z,10.31
2023-05-19T03:33:19.173Z,10.25
2023-05-19T03:35:48.564Z,10.17
2023-05-19T03:38:19.315Z,10.17
2023-05-19T03:40:57.219Z,10.21
2023-05-19T03:43:26.262Z,10.25
2023-05-19T03:45:59.907Z,10.23
2023-05-19T03:48:43.786Z,10.26
2023-05-19T03:51:18.253Z,10.29
2023-05-19T03:53:50.439Z,10.28
2023-05-19T03:56:23.171Z,10.16
2023-05-19T03:58:52.061Z,10.17
2023-05-19T04:01:21.173Z,10.26
2023-05-19T04:03:50.353Z,10.27
2023-05-19T04:06:20.434Z,10.27
2023-05-19T04:08:51.330Z,10.31
2023-05-19T04:11:21.610Z,10.35
2023-05-19T04:13:51.331Z,10.37
2023-05-19T04:16:21.424Z,10.40
2023-05-19T04:18:50.348Z,10.42
2023-05-19T04:21:22.706Z,10.41
2023-05-19T04:23:53.153Z,10.37
2023-05-19T04:26:22.775Z,10.36
2023-05-19T04:28:52.176Z,10.44
2023-05-19T04:31:21.883Z,10.42
2023-05-19T04:33:50.905Z,10.46
2023-05-19T04:36:21.801Z,10.55
2023-05-19T04:39:02.473Z,10.55
2023-05-19T04:41:33.900Z,10.65
2023-05-19T04:44:07.639Z,10.62
2023-05-19T04:46:36.957Z,10.69
2023-05-19T04:49:07.913Z,10.76
2023-05-19T04:51:37.033Z,10.80
2023-05-19T04:54:11.170Z,10.82
2023-05-19T04:56:40.570Z,10.88
2023-05-19T04:59:09.961Z,10.94
2023-05-19T05:01:40.644Z,11.01
2023-05-19T05:04:12.586Z,11.07
2023-05-19T05:06:49.125Z,11.09
2023-05-19T05:09:20.999Z,11.15
2023-05-19T05:11:53.360Z,11.23
2023-05-19T05:14:24.610Z,11.26
2023-05-19T05:16:59.471Z,11.28
2023-05-19T05:19:30.707Z,11.31
2023-05-19T05:22:04.604Z,11.39
2023-05-19T05:29:04.806Z,11.53
2023-05-19T05:31:43.519Z,11.62
2023-05-19T05:34:14.004Z,11.66
2023-05-19T05:36:46.298Z,11.67
2023-05-19T05:40:07.207Z,11.74
2023-05-19T05:42:38.335Z,11.77
2023-05-19T05:45:13.991Z,11.82
2023-05-19T05:48:06.106Z,11.91
2023-05-19T05:50:37.083Z,12.01
2023-05-19T05:54:09.484Z,12.11
2023-05-19T05:56:49.393Z,12.16
2023-05-19T05:59:25.272Z,12.28
2023-05-19T06:02:04.438Z,12.35
2023-05-19T06:04:39.220Z,12.43
2023-05-19T06:07:08.996Z,12.47
2023-05-19T06:09:42.337Z,12.38
2023-05-19T06:12:11.994Z,12.39
2023-05-19T06:14:47.196Z,12.52
2023-05-19T06:17:52.812Z,12.64
2023-05-19T06:20:22.472Z,12.69
2023-05-19T06:22:51.448Z,12.80
2023-05-19T06:25:23.006Z,12.95
2023-05-19T06:28:14.738Z,13.11
2023-05-19T06:30:43.717Z,13.19
2023-05-19T06:33:40.471Z,13.30
2023-05-19T06:36:11.020Z,13.29
2023-05-19T06:38:45.285Z,13.26
2023-05-19T06:41:14.653Z,13.33
2023-05-19T06:43:44.770Z,13.50
2023-05-19T06:46:17.990Z,13.70
2023-05-19T06:48:49.153Z,13.58
2023-05-19T06:51:22.614Z,13.62
2023-05-19T06:53:56.540Z,13.64
2023-05-19T06:56:26.433Z,13.74
2023-05-19T06:58:55.339Z,13.68
2023-05-19T07:01:30.232Z,13.64
2023-05-19T07:04:02.220Z,13.61
2023-05-19T07:06:34.174Z,13.66
2023-05-19T07:09:05.645Z,13.70
2023-05-19T07:11:36.359Z,13.71
2023-05-19T07:14:05.533Z,13.59
2023-05-19T07:16:34.686Z,13.48
2023-05-19T07:19:05.672Z,13.42
2023-05-19T07:21:35.733Z,13.44
2023-05-19T07:24:08.206Z,13.65
2023-05-19T07:26:38.633Z,13.75
2023-05-19T07:29:08.233Z,13.79
2023-05-19T07:31:37.368Z,13.83
2023-05-19T07:34:09.308Z,13.94
2023-05-19T07:36:39.651Z,14.02
2023-05-19T07:39:08.849Z,14.08
2023-05-19T07:41:40.818Z,14.02
2023-05-19T07:44:12.360Z,14.18
2023-05-19T07:46:42.539Z,14.27
2023-05-19T07:49:20.271Z,14.25
2023-05-19T07:51:50.063Z,14.30
2023-05-19T07:54:19.024Z,14.27
2023-05-19T07:56:48.324Z,14.20
2023-05-19T07:59:18.122Z,14.23
2023-05-19T08:01:47.340Z,14.32
2023-05-19T08:04:20.422Z,14.42
2023-05-19T08:06:49.484Z,14.41
2023-05-19T08:09:18.831Z,14.47
2023-05-19T08:11:57.566Z,14.56
2023-05-19T08:14:27.747Z,14.48
2023-05-19T08:16:57.156Z,14.67
2023-05-19T08:19:27.453Z,14.69
2023-05-19T08:21:56.411Z,14.70
2023-05-19T08:24:26.826Z,14.81
2023-05-19T08:26:55.928Z,14.81
2023-05-19T08:29:24.940Z,14.86
2023-05-19T08:31:54.261Z,15.02
2023-05-19T08:34:23.112Z,15.19
2023-05-19T08:36:53.558Z,15.42
2023-05-19T08:39:26.736Z,15.52
2023-05-19T08:41:55.733Z,15.71
2023-05-19T08:44:24.475Z,15.84
2023-05-19T08:46:56.539Z,15.87
2023-05-19T08:49:29.928Z,15.84
2023-05-19T08:52:15.464Z,15.85
2023-05-19T08:54:54.570Z,15.94
2023-05-19T08:57:26.246Z,16.13
2023-05-19T08:59:56.978Z,16.20
2023-05-19T09:02:26.644Z,16.41
2023-05-19T09:04:57.748Z,16.57
2023-05-19T09:07:30.450Z,16.77
2023-05-19T09:10:00.985Z,16.76
2023-05-19T09:12:29.834Z,16.68
2023-05-19T09:14:59.237Z,16.61
2023-05-19T09:17:28.076Z,16.62
2023-05-19T09:19:56.750Z,16.47
2023-05-19T09:22:27.163Z,16.53
2023-05-19T09:24:56.702Z,16.52
2023-05-19T09:27:25.441Z,16.56
2023-05-19T09:29:54.284Z,16.63
2023-05-19T09:32:27.530Z,16.71
2023-05-19T09:34:57.233Z,16.86
2023-05-19T09:37:29.267Z,17.03
2023-05-19T09:39:59.568Z,17.20
2023-05-19T09:42:30.141Z,17.14
2023-05-19T09:45:02.963Z,17.23
2023-05-19T09:47:36.991Z,17.39
2023-05-19T09:50:09.038Z,17.28
2023-05-19T09:52:41.039Z,17.45
2023-05-19T09:55:13.902Z,17.70
2023-05-19T09:57:42.766Z,18.11
2023-05-19T10:00:14.576Z,18.54
2023-05-19T10:02:45.186Z,18.32
2023-05-19T10:05:17.853Z,18.45
2023-05-19T10:07:51.645Z,18.77
2023-05-19T10:10:21.827Z,18.52
2023-05-19T10:12:51.418Z,18.41
2023-05-19T10:15:23.169Z,18.41
2023-05-19T10:17:53.824Z,18.61
2023-05-19T10:20:22.624Z,18.51
2023-05-19T10:22:53.005Z,18.53
2023-05-19T10:25:21.837Z,18.92
2023-05-19T10:27:57.985Z,19.15
2023-05-19T10:30:36.076Z,19.19
2023-05-19T10:33:10.827Z,19.14
2023-05-19T10:36:11.467Z,19.27
2023-05-19T10:38:50.128Z,19.51
2023-05-19T10:41:29.834Z,19.69
2023-05-19T10:44:13.701Z,19.82
2023-05-19T10:46:43.202Z,19.79
2023-05-19T10:49:12.287Z,19.81
2023-05-19T10:51:41.130Z,20.09
2023-05-19T10:54:14.426Z,20.46
2023-05-19T10:56:47.353Z,20.40
2023-05-19T10:59:39.976Z,20.69
2023-05-19T11:02:10.330Z,20.65
2023-05-19T11:04:51.804Z,20.43
2023-05-19T11:07:24.702Z,20.48
2023-05-19T11:09:55.613Z,20.38
2023-05-19T11:12:25.580Z,20.17
2023-05-19T11:14:55.787Z,20.48
2023-05-19T11:17:27.530Z,20.44
2023-05-19T11:20:00.263Z,20.50
2023-05-19T11:22:29.995Z,20.53
2023-05-19T11:25:01.229Z,21.06
2023-05-19T11:27:32.826Z,21.15
2023-05-19T11:30:12.122Z,21.32
2023-05-19T11:32:42.910Z,20.97
2023-05-19T11:35:14.216Z,21.34
2023-05-19T11:37:44.964Z,21.13
2023-05-19T11:40:17.774Z,20.84
2023-05-19T11:42:46.706Z,20.66
2023-05-19T11:45:15.443Z,20.25
2023-05-19T11:48:01.343Z,20.39
2023-05-19T11:50:33.620Z,20.90
2023-05-19T11:53:05.687Z,21.05
2023-05-19T11:55:36.911Z,21.12
2023-05-19T11:58:07.212Z,21.47
2023-05-19T12:00:40.347Z,21.98
2023-05-19T12:03:12.448Z,22.04
2023-05-19T12:05:48.638Z,21.67
2023-05-19T12:08:19.747Z,21.33
2023-05-19T12:10:54.650Z,21.09
2023-05-19T12:13:26.830Z,21.16
2023-05-19T12:16:02.581Z,21.27
2023-05-19T12:18:40.833Z,20.98
2023-05-19T12:21:12.739Z,20.71
2023-05-19T12:23:45.476Z,21.07
2023-05-19T12:26:18.275Z,21.58
2023-05-19T12:28:47.946Z,21.68
2023-05-19T12:31:18.677Z,22.13
2023-05-19T12:33:52.129Z,22.30
2023-05-19T12:36:23.048Z,21.78
2023-05-19T12:38:56.860Z,21.19
2023-05-19T12:41:28.501Z,20.64
2023-05-19T12:43:57.858Z,20.73
2023-05-19T12:46:26.607Z,20.83
2023-05-19T12:49:01.980Z,21.11
2023-05-19T12:51:30.716Z,21.54
2023-05-19T12:53:59.777Z,22.01
2023-05-19T12:56:30.342Z,22.61
2023-05-19T12:59:02.935Z,23.13
2023-05-19T13:01:32.416Z,23.75
2023-05-19T13:04:02.133Z,24.40
2023-05-19T13:06:33.259Z,24.38
2023-05-19T13:09:01.943Z,23.67
2023-05-19T13:11:32.699Z,22.39
2023-05-19T13:14:01.796Z,21.91
2023-05-19T13:16:30.779Z,21.82
2023-05-19T13:18:59.648Z,22.08
2023-05-19T13:21:28.842Z,21.83
2023-05-19T13:23:57.786Z,21.32
2023-05-19T13:26:26.918Z,20.92
2023-05-19T13:28:58.006Z,20.76
2023-05-19T13:31:26.927Z,20.48
2023-05-19T13:33:55.898Z,20.29
2023-05-19T13:36:28.057Z,20.09
2023-05-19T13:38:58.124Z,19.92
2023-05-19T13:41:29.310Z,19.92
2023-05-19T13:44:00.744Z,19.84
2023-05-19T13:46:40.827Z,19.92
2023-05-19T13:49:13.906Z,19.98
2023-05-19T13:51:44.915Z,19.95
2023-05-19T13:54:18.019Z,19.80
2023-05-19T13:56:48.768Z,19.69
2023-05-19T13:59:18.955Z,19.69
2023-05-19T14:01:48.220Z,19.49
2023-05-19T14:04:20.860Z,19.47
2023-05-19T14:06:49.713Z,19.48
2023-05-19T14:09:18.605Z,19.49
2023-05-19T14:11:48.564Z,19.49
2023-05-19T14:14:18.732Z,19.53
2023-05-19T14:16:47.461Z,19.51
2023-05-19T14:19:16.605Z,19.40
2023-05-19T14:21:45.732Z,19.41
2023-05-19T14:24:14.713Z,19.41
2023-05-19T14:26:43.435Z,19.39
2023-05-19T14:29:12.776Z,19.36
2023-05-19T14:31:43.072Z,19.26
2023-05-19T14:34:11.980Z,19.08
2023-05-19T14:36:40.644Z,19.07
2023-05-19T14:39:09.628Z,18.93
2023-05-19T14:41:38.701Z,18.90
2023-05-19T14:44:07.891Z,18.80
2023-05-19T14:46:37.410Z,18.75
2023-05-19T14:49:08.091Z,18.75
2023-05-19T14:51:40.043Z,18.67
2023-05-19T14:54:09.030Z,18.62
2023-05-19T14:56:38.296Z,18.58
2023-05-19T14:59:07.101Z,18.55
2023-05-19T15:01:35.835Z,18.52
2023-05-19T15:04:08.106Z,18.54
2023-05-19T15:06:36.925Z,18.60
2023-05-19T15:09:06.487Z,18.76
2023-05-19T15:11:35.348Z,18.64
2023-05-19T15:14:04.259Z,18.58
2023-05-19T15:16:33.188Z,18.63
2023-05-19T15:19:02.099Z,18.61
2023-05-19T15:21:32.652Z,18.75
2023-05-19T15:24:02.393Z,18.95
2023-05-19T15:26:31.770Z,19.01
2023-05-19T15:29:00.965Z,19.00
2023-05-19T15:31:29.845Z,18.91
2023-05-19T15:33:58.659Z,18.91
2023-05-19T15:36:28.427Z,18.73
2023-05-19T15:38:58.692Z,18.62
2023-05-19T15:41:27.386Z,18.44
2023-05-19T15:43:57.804Z,18.28
2023-05-19T15:46:27.303Z,18.19
2023-05-19T15:48:56.798Z,18.11
2023-05-19T15:51:27.458Z,17.90
2023-05-19T15:53:57.896Z,17.85
2023-05-19T15:56:27.340Z,17.91
2023-05-19T15:58:56.182Z,17.99
2023-05-19T16:01:25.348Z,18.01
2023-05-19T16:03:54.308Z,18.02
2023-05-19T16:06:24.665Z,18.01
2023-05-19T16:08:53.456Z,18.01
2023-05-19T16:11:23.877Z,17.98
2023-05-19T16:13:53.416Z,18.04
2023-05-19T16:16:22.178Z,17.86
2023-05-19T16:18:52.381Z,17.81
2023-05-19T16:21:21.953Z,17.75
2023-05-19T16:23:52.384Z,17.66
2023-05-19T16:26:30.878Z,17.69
2023-05-19T16:29:00.799Z,17.64
2023-05-19T16:31:30.139Z,17.58
2023-05-19T16:34:02.416Z,17.55
2023-05-19T16:36:33.607Z,17.51
2023-05-19T16:39:03.239Z,17.47
2023-05-19T16:41:36.067Z,17.52
2023-05-19T16:44:07.383Z,17.49
2023-05-19T16:46:41.582Z,17.47
2023-05-19T16:49:13.750Z,17.50
2023-05-19T16:51:45.725Z,17.45
2023-05-19T16:54:17.482Z,17.33
2023-05-19T16:56:53.326Z,17.31
2023-05-19T16:59:28.709Z,17.16
2023-05-19T17:01:58.366Z,17.13
2023-05-19T17:04:30.746Z,17.09
2023-05-19T17:07:03.826Z,17.03
2023-05-19T17:09:37.560Z,16.94
2023-05-19T17:12:10.647Z,16.89
2023-05-19T17:14:44.122Z,16.87
2023-05-19T17:17:20.705Z,16.89
2023-05-19T17:19:53.046Z,16.86
2023-05-19T17:22:27.840Z,16.86
2023-05-19T17:24:58.855Z,16.82
2023-05-19T17:27:31.564Z,16.69
2023-05-19T17:30:02.559Z,16.74
2023-05-19T17:32:42.471Z,16.73
2023-05-19T17:35:23.381Z,16.57
2023-05-19T17:37:53.852Z,16.44
2023-05-19T17:40:27.201Z,16.46
2023-05-19T17:42:57.425Z,16.51
2023-05-19T17:45:27.721Z,16.53
2023-05-19T17:47:57.920Z,16.50
2023-05-19T17:50:28.188Z,16.39
2023-05-19T17:52:57.683Z,16.32
2023-05-19T17:55:30.394Z,16.27
2023-05-19T17:58:04.115Z,16.27
2023-05-19T18:00:33.958Z,16.33
2023-05-19T18:03:06.282Z,16.32
2023-05-19T18:05:37.577Z,16.22
2023-05-19T18:08:09.464Z,16.23
2023-05-19T18:10:42.247Z,16.19
2023-05-19T18:13:14.166Z,16.25
2023-05-19T18:15:44.086Z,16.20
2023-05-19T18:18:13.005Z,16.15
2023-05-19T18:20:45.725Z,16.15
2023-05-19T18:23:14.576Z,16.12
2023-05-19T18:25:50.421Z,16.16
2023-05-19T18:28:21.279Z,16.04
2023-05-19T18:31:00.203Z,16.04
2023-05-19T18:33:31.346Z,15.95
2023-05-19T18:36:00.549Z,15.92
2023-05-19T18:38:30.382Z,15.91
2023-05-19T18:41:00.946Z,15.83
2023-05-19T18:43:34.258Z,15.84
2023-05-19T18:46:03.015Z,15.85
2023-05-19T18:48:33.227Z,15.88
2023-05-19T18:51:03.960Z,15.87
2023-05-19T18:53:35.667Z,15.86
2023-05-19T18:56:05.712Z,15.88
2023-05-19T18:58:36.261Z,15.92
2023-05-19T19:01:08.725Z,15.81
2023-05-19T19:03:37.429Z,15.76
2023-05-19T19:06:07.262Z,15.74
2023-05-19T19:08:35.926Z,15.70
2023-05-19T19:11:09.264Z,15.67
2023-05-19T19:13:39.613Z,15.69
2023-05-19T19:16:09.619Z,15.68
2023-05-19T19:18:38.686Z,15.63
2023-05-19T19:21:07.668Z,15.52
2023-05-19T19:23:36.348Z,15.56
2023-05-19T19:26:05.166Z,15.54
2023-05-19T19:28:33.929Z,15.55
2023-05-19T19:31:04.194Z,15.64
2023-05-19T19:33:33.981Z,15.70
2023-05-19T19:36:03.031Z,15.69
2023-05-19T19:38:31.975Z,15.70
2023-05-19T19:41:00.813Z,15.66
2023-05-19T19:43:29.541Z,15.64
2023-05-19T19:46:04.611Z,15.55
2023-05-19T19:48:33.384Z,15.55
2023-05-19T19:51:02.179Z,15.52
2023-05-19T19:53:30.944Z,15.52
2023-05-19T19:56:00.987Z,15.50
2023-05-19T19:58:30.547Z,15.45
2023-05-19T20:01:00.070Z,15.39
2023-05-19T20:03:31.769Z,15.35
2023-05-19T20:06:00.823Z,15.39
2023-05-19T20:08:29.574Z,15.37
2023-05-19T20:10:58.336Z,15.36
2023-05-19T20:13:27.091Z,15.38
2023-05-19T20:15:56.204Z,15.42
2023-05-19T20:18:25.889Z,15.36
2023-05-19T20:20:55.951Z,15.36
2023-05-19T20:23:24.693Z,15.38
2023-05-19T20:26:09.919Z,15.41
2023-05-19T20:28:40.434Z,15.32
2023-05-19T20:31:09.431Z,15.38
2023-05-19T20:33:38.126Z,15.41
2023-05-19T20:36:08.663Z,15.35
2023-05-19T20:38:37.400Z,15.37
2023-05-19T20:41:06.282Z,15.34
2023-05-19T20:43:35.168Z,15.36
2023-05-19T20:48:51.999Z,15.42
2023-05-19T20:51:25.202Z,15.43
2023-05-19T20:53:53.900Z,15.38
2023-05-19T20:56:23.334Z,15.29
2023-05-19T20:58:52.050Z,15.28
2023-05-19T21:01:20.818Z,15.28
2023-05-19T21:03:49.527Z,15.20
2023-05-19T21:06:18.283Z,15.17
2023-05-19T21:08:48.419Z,15.15
2023-05-19T21:11:17.144Z,15.19
2023-05-19T21:13:45.953Z,15.18
2023-05-19T21:16:14.659Z,15.22
2023-05-19T21:18:43.426Z,15.25
2023-05-19T21:21:12.207Z,15.23
2023-05-19T21:23:40.988Z,15.22
2023-05-19T21:26:11.078Z,15.21
2023-05-19T21:28:39.864Z,15.10
2023-05-19T21:31:08.610Z,15.06
2023-05-19T21:33:37.378Z,15.09
2023-05-19T21:36:06.875Z,14.93
2023-05-19T21:38:35.650Z,14.98
2023-05-19T21:41:04.378Z,15.05
2023-05-19T21:43:34.489Z,14.99
2023-05-19T21:46:03.140Z,14.97
2023-05-19T21:48:31.874Z,14.81
2023-05-19T21:51:00.543Z,14.81
2023-05-19T21:53:29.315Z,14.85
2023-05-19T21:55:58.094Z,14.74
2023-05-19T21:58:27.025Z,14.75
2023-05-19T22:00:57.107Z,14.72
2023-05-19T22:03:26.278Z,14.80
2023-05-19T22:05:56.249Z,14.70
2023-05-19T22:08:26.093Z,14.70
2023-05-19T22:10:54.982Z,14.72
2023-05-19T22:13:23.807Z,14.67
2023-05-19T22:15:52.594Z,14.71
2023-05-19T22:18:22.783Z,14.64
2023-05-19T22:20:51.506Z,14.62
2023-05-19T22:23:20.277Z,14.63
2023-05-19T22:25:48.997Z,14.68
2023-05-19T22:28:17.764Z,14.71
2023-05-19T22:30:46.690Z,14.68
2023-05-19T22:33:15.431Z,14.68
2023-05-19T22:35:46.060Z,14.69
2023-05-19T22:38:14.753Z,14.75
2023-05-19T22:40:43.473Z,14.69
2023-05-19T22:43:12.275Z,14.72
2023-05-19T22:45:41.216Z,14.78
2023-05-19T22:48:10.077Z,14.81
2023-05-19T22:50:38.832Z,14.82
2023-05-19T22:53:08.922Z,14.85
2023-05-19T22:55:37.613Z,14.82
2023-05-19T22:58:07.440Z,14.84
2023-05-19T23:00:36.200Z,14.82
2023-05-19T23:03:05.181Z,14.81
2023-05-19T23:05:34.139Z,14.71
2023-05-19T23:08:03.089Z,14.76
2023-05-19T23:10:33.207Z,14.75
2023-05-19T23:13:01.878Z,14.62
2023-05-19T23:15:30.636Z,14.56
2023-05-19T23:18:01.296Z,14.50
2023-05-19T23:20:30.329Z,14.47
2023-05-19T23:22:59.048Z,14.42
2023-05-19T23:25:27.791Z,14.49
2023-05-19T23:27:57.959Z,14.51
2023-05-19T23:30:26.664Z,14.47
2023-05-19T23:32:55.372Z,14.48
2023-05-19T23:35:24.250Z,14.48
2023-05-19T23:37:54.292Z,14.36
2023-05-19T23:40:23.227Z,14.34
2023-05-19T23:42:51.930Z,14.34
2023-05-19T23:45:22.046Z,14.35
2023-05-19T23:47:50.842Z,14.24
2023-05-19T23:50:19.695Z,14.15
2023-05-19T23:52:49.503Z,14.08
2023-05-19T23:55:18.502Z,14.09
2023-05-19T23:57:47.256Z,14.11
